LIC0209 LEMI-LEBA
Flight info
| Callsign | LIC0209 |
|---|---|
| Flight time | 0h 44m |
| Altitude | 31000 |
| Route | RESTU DCT ALCOL |
| Aircraft | A320/M-SDE3FGHIRWY/LB1 |
Departure
| Time | 2026-05-05 10:25 |
|---|---|
| Airport | Region of Murcia International Airport (LEMI) |
Arrival
| Time | 2026-05-05 11:10 |
|---|---|
| Airport | Córdoba Airport (LEBA) |
| Time | Latitude | Longitude | Altitude | Speed | Heading |
|---|---|---|---|---|---|
| 2026-05-05 10:06 | 37.80522 | -1.12827 | 648 ft | 0 kts | 45° |
| 2026-05-05 10:17 | 37.80515 | -1.12836 | 648 ft | 4 kts | 65° |
| 2026-05-05 10:18 | 37.80513 | -1.12845 | 649 ft | 4 kts | 155° |
| 2026-05-05 10:18 | 37.80533 | -1.12859 | 650 ft | 1 kts | 135° |
| 2026-05-05 10:20 | 37.80514 | -1.12836 | 648 ft | 10 kts | 137° |
| 2026-05-05 10:20 | 37.80463 | -1.12788 | 647 ft | 0 kts | 145° |
| 2026-05-05 10:21 | 37.80445 | -1.12773 | 647 ft | 9 kts | 147° |
| 2026-05-05 10:21 | 37.80380 | -1.12742 | 647 ft | 11 kts | 179° |
| 2026-05-05 10:21 | 37.80315 | -1.12781 | 648 ft | 10 kts | 217° |
| 2026-05-05 10:21 | 37.80270 | -1.12838 | 647 ft | 9 kts | 232° |
| 2026-05-05 10:22 | 37.80217 | -1.12909 | 647 ft | 17 kts | 222° |
| 2026-05-05 10:22 | 37.80123 | -1.13026 | 647 ft | 20 kts | 226° |
| 2026-05-05 10:22 | 37.80026 | -1.13154 | 648 ft | 21 kts | 224° |
| 2026-05-05 10:22 | 37.79918 | -1.13290 | 652 ft | 22 kts | 225° |
| 2026-05-05 10:23 | 37.79808 | -1.13432 | 651 ft | 24 kts | 225° |
| 2026-05-05 10:23 | 37.79685 | -1.13591 | 650 ft | 27 kts | 226° |
| 2026-05-05 10:23 | 37.79557 | -1.13751 | 647 ft | 24 kts | 224° |
| 2026-05-05 10:23 | 37.79442 | -1.13844 | 647 ft | 20 kts | 174° |
| 2026-05-05 10:24 | 37.79379 | -1.13727 | 646 ft | 12 kts | 128° |
| 2026-05-05 10:24 | 37.79386 | -1.13669 | 645 ft | 0 kts | 48° |
| 2026-05-05 10:24 | 37.79446 | -1.13589 | 644 ft | 48 kts | 46° |
| 2026-05-05 10:24 | 37.79864 | -1.13051 | 646 ft | 120 kts | 45° |
| 2026-05-05 10:25 | 37.80580 | -1.12122 | 726 ft | 167 kts | 46° |
| 2026-05-05 10:25 | 37.81441 | -1.11029 | 1234 ft | 183 kts | 45° |
| 2026-05-05 10:25 | 37.82343 | -1.09919 | 2100 ft | 179 kts | 42° |
| 2026-05-05 10:25 | 37.83257 | -1.08815 | 2822 ft | 189 kts | 41° |
| 2026-05-05 10:26 | 37.84268 | -1.07601 | 3206 ft | 212 kts | 41° |
| 2026-05-05 10:26 | 37.85402 | -1.06239 | 3631 ft | 238 kts | 41° |
| 2026-05-05 10:26 | 37.86650 | -1.04738 | 4347 ft | 254 kts | 42° |
| 2026-05-05 10:26 | 37.87949 | -1.03175 | 5222 ft | 262 kts | 43° |
| 2026-05-05 10:27 | 37.89287 | -1.01561 | 6104 ft | 269 kts | 44° |
| 2026-05-05 10:27 | 37.90659 | -0.99905 | 7007 ft | 276 kts | 44° |
| 2026-05-05 10:27 | 37.92064 | -0.98208 | 7889 ft | 283 kts | 43° |
| 2026-05-05 10:27 | 37.93538 | -0.96518 | 8763 ft | 289 kts | 34° |
| 2026-05-05 10:28 | 37.95360 | -0.95455 | 9634 ft | 290 kts | 9° |
| 2026-05-05 10:28 | 37.97358 | -0.95387 | 10456 ft | 287 kts | 344° |
| 2026-05-05 10:28 | 37.99182 | -0.96299 | 11297 ft | 281 kts | 321° |
| 2026-05-05 10:28 | 38.00568 | -0.97975 | 12187 ft | 274 kts | 300° |
| 2026-05-05 10:29 | 38.01350 | -1.00130 | 13085 ft | 268 kts | 279° |
| 2026-05-05 10:29 | 38.01458 | -1.02464 | 13971 ft | 265 kts | 261° |
| 2026-05-05 10:29 | 38.00899 | -1.04677 | 14771 ft | 266 kts | 242° |
| 2026-05-05 10:29 | 37.99739 | -1.06515 | 15562 ft | 272 kts | 223° |
| 2026-05-05 10:30 | 37.98079 | -1.07718 | 16352 ft | 282 kts | 204° |
| 2026-05-05 10:30 | 37.96134 | -1.08259 | 17160 ft | 288 kts | 197° |
| 2026-05-05 10:30 | 37.94154 | -1.08728 | 17951 ft | 290 kts | 197° |
| 2026-05-05 10:30 | 37.92157 | -1.09203 | 18637 ft | 294 kts | 198° |
| 2026-05-05 10:31 | 37.90145 | -1.09686 | 19304 ft | 296 kts | 198° |
| 2026-05-05 10:31 | 37.88115 | -1.10173 | 19971 ft | 298 kts | 198° |
| 2026-05-05 10:31 | 37.86075 | -1.10667 | 20618 ft | 300 kts | 198° |
| 2026-05-05 10:31 | 37.84098 | -1.11327 | 21264 ft | 294 kts | 211° |
| 2026-05-05 10:32 | 37.82502 | -1.12846 | 21878 ft | 287 kts | 233° |
| 2026-05-05 10:32 | 37.81563 | -1.15066 | 22326 ft | 295 kts | 254° |
| 2026-05-05 10:32 | 37.81519 | -1.17734 | 22461 ft | 320 kts | 278° |
| 2026-05-05 10:32 | 37.82163 | -1.20517 | 22599 ft | 338 kts | 282° |
| 2026-05-05 10:33 | 37.82882 | -1.23421 | 22732 ft | 354 kts | 282° |
| 2026-05-05 10:33 | 37.83633 | -1.26432 | 23043 ft | 363 kts | 282° |
| 2026-05-05 10:33 | 37.84397 | -1.29497 | 23515 ft | 367 kts | 282° |
| 2026-05-05 10:33 | 37.85164 | -1.32595 | 23979 ft | 370 kts | 282° |
| 2026-05-05 10:34 | 37.85930 | -1.35718 | 24455 ft | 373 kts | 282° |
| 2026-05-05 10:34 | 37.86696 | -1.38861 | 24903 ft | 375 kts | 282° |
| 2026-05-05 10:34 | 37.87460 | -1.42022 | 25342 ft | 377 kts | 282° |
| 2026-05-05 10:34 | 37.88224 | -1.45206 | 25772 ft | 379 kts | 282° |
| 2026-05-05 10:35 | 37.88988 | -1.48411 | 26163 ft | 382 kts | 282° |
| 2026-05-05 10:35 | 37.89758 | -1.51618 | 26579 ft | 384 kts | 282° |
| 2026-05-05 10:35 | 37.90465 | -1.54874 | 27025 ft | 382 kts | 276° |
| 2026-05-05 10:35 | 37.90747 | -1.58198 | 27480 ft | 379 kts | 268° |
| 2026-05-05 10:36 | 37.90730 | -1.61536 | 27918 ft | 380 kts | 266° |
| 2026-05-05 10:36 | 37.90704 | -1.64894 | 28354 ft | 382 kts | 266° |
| 2026-05-05 10:36 | 37.90681 | -1.68269 | 28767 ft | 385 kts | 266° |
| 2026-05-05 10:36 | 37.90660 | -1.71671 | 29153 ft | 387 kts | 266° |
| 2026-05-05 10:37 | 37.90640 | -1.75090 | 29568 ft | 389 kts | 266° |
| 2026-05-05 10:37 | 37.90621 | -1.78522 | 29963 ft | 391 kts | 267° |
| 2026-05-05 10:37 | 37.90600 | -1.81970 | 30296 ft | 393 kts | 266° |
| 2026-05-05 10:37 | 37.90577 | -1.85439 | 30613 ft | 395 kts | 266° |
| 2026-05-05 10:38 | 37.90549 | -1.88923 | 30891 ft | 397 kts | 266° |
| 2026-05-05 10:38 | 37.90518 | -1.92409 | 30988 ft | 392 kts | 266° |
| 2026-05-05 10:38 | 37.90491 | -1.95786 | 30988 ft | 377 kts | 266° |
| 2026-05-05 10:38 | 37.90465 | -1.99082 | 30999 ft | 372 kts | 266° |
| 2026-05-05 10:39 | 37.90409 | -2.05607 | 30998 ft | 370 kts | 266° |
| 2026-05-05 10:39 | 37.90349 | -2.12075 | 31001 ft | 370 kts | 266° |
| 2026-05-05 10:40 | 37.90272 | -2.18613 | 31008 ft | 371 kts | 266° |
| 2026-05-05 10:40 | 37.90205 | -2.25131 | 31008 ft | 370 kts | 266° |
| 2026-05-05 10:41 | 37.90143 | -2.31643 | 31017 ft | 369 kts | 266° |
| 2026-05-05 10:41 | 37.90069 | -2.38107 | 31015 ft | 367 kts | 266° |
| 2026-05-05 10:42 | 37.89943 | -2.47808 | 31012 ft | 367 kts | 266° |
| 2026-05-05 10:43 | 37.89856 | -2.54270 | 31010 ft | 367 kts | 266° |
| 2026-05-05 10:43 | 37.89771 | -2.60733 | 31019 ft | 367 kts | 266° |
| 2026-05-05 10:44 | 37.89683 | -2.67187 | 31016 ft | 367 kts | 266° |
| 2026-05-05 10:44 | 37.89591 | -2.73633 | 31023 ft | 366 kts | 266° |
| 2026-05-05 10:45 | 37.89496 | -2.80083 | 31022 ft | 366 kts | 266° |
| 2026-05-05 10:45 | 37.89395 | -2.86514 | 31021 ft | 365 kts | 266° |
| 2026-05-05 10:46 | 37.89289 | -2.92937 | 31018 ft | 365 kts | 266° |
| 2026-05-05 10:46 | 37.89180 | -2.99344 | 31009 ft | 364 kts | 266° |
| 2026-05-05 10:47 | 37.89069 | -3.05756 | 31025 ft | 364 kts | 266° |
| 2026-05-05 10:47 | 37.88960 | -3.12168 | 31024 ft | 364 kts | 266° |
| 2026-05-05 10:48 | 37.88840 | -3.18572 | 30758 ft | 364 kts | 266° |
| 2026-05-05 10:48 | 37.88777 | -3.21774 | 30512 ft | 364 kts | 266° |
| 2026-05-05 10:48 | 37.88715 | -3.24979 | 30269 ft | 364 kts | 266° |
| 2026-05-05 10:48 | 37.88653 | -3.28185 | 30025 ft | 365 kts | 266° |
| 2026-05-05 10:49 | 37.88593 | -3.31403 | 29744 ft | 365 kts | 266° |
| 2026-05-05 10:49 | 37.88532 | -3.34609 | 29464 ft | 364 kts | 266° |
| 2026-05-05 10:49 | 37.88468 | -3.37813 | 29184 ft | 363 kts | 266° |
| 2026-05-05 10:49 | 37.88405 | -3.40984 | 28777 ft | 356 kts | 266° |
| 2026-05-05 10:50 | 37.88340 | -3.44089 | 28287 ft | 350 kts | 266° |
| 2026-05-05 10:50 | 37.88271 | -3.47144 | 27787 ft | 344 kts | 266° |
| 2026-05-05 10:50 | 37.88201 | -3.50145 | 27315 ft | 338 kts | 266° |
| 2026-05-05 10:50 | 37.88136 | -3.53100 | 26849 ft | 333 kts | 266° |
| 2026-05-05 10:51 | 37.88075 | -3.56009 | 26389 ft | 328 kts | 266° |
| 2026-05-05 10:51 | 37.88036 | -3.57916 | 26096 ft | 325 kts | 266° |
| 2026-05-05 10:51 | 37.87976 | -3.60760 | 25654 ft | 322 kts | 266° |
| 2026-05-05 10:51 | 37.87913 | -3.63586 | 25230 ft | 320 kts | 266° |
| 2026-05-05 10:52 | 37.87850 | -3.66400 | 24802 ft | 319 kts | 266° |
| 2026-05-05 10:52 | 37.87786 | -3.69197 | 24383 ft | 318 kts | 266° |
| 2026-05-05 10:52 | 37.87719 | -3.71994 | 23982 ft | 317 kts | 266° |
| 2026-05-05 10:52 | 37.87652 | -3.74774 | 23582 ft | 316 kts | 266° |
| 2026-05-05 10:53 | 37.87585 | -3.77549 | 23127 ft | 315 kts | 266° |
| 2026-05-05 10:53 | 37.87519 | -3.80309 | 22739 ft | 313 kts | 266° |
| 2026-05-05 10:53 | 37.87453 | -3.83063 | 22350 ft | 311 kts | 267° |
| 2026-05-05 10:53 | 37.87387 | -3.85787 | 21957 ft | 309 kts | 268° |
| 2026-05-05 10:54 | 37.87322 | -3.88495 | 21572 ft | 307 kts | 268° |
| 2026-05-05 10:54 | 37.87256 | -3.91190 | 21180 ft | 306 kts | 268° |
| 2026-05-05 10:54 | 37.87190 | -3.93872 | 20783 ft | 304 kts | 268° |
| 2026-05-05 10:54 | 37.87123 | -3.96546 | 20388 ft | 303 kts | 267° |
| 2026-05-05 10:55 | 37.87057 | -3.99207 | 19977 ft | 302 kts | 268° |
| 2026-05-05 10:55 | 37.86989 | -4.01853 | 19571 ft | 300 kts | 267° |
| 2026-05-05 10:55 | 37.86920 | -4.04492 | 19163 ft | 299 kts | 267° |
| 2026-05-05 10:55 | 37.86851 | -4.07119 | 18751 ft | 298 kts | 267° |
| 2026-05-05 10:56 | 37.86782 | -4.09737 | 18343 ft | 297 kts | 267° |
| 2026-05-05 10:56 | 37.86713 | -4.12349 | 17891 ft | 296 kts | 267° |
| 2026-05-05 10:56 | 37.86645 | -4.14948 | 17479 ft | 295 kts | 267° |
| 2026-05-05 10:56 | 37.86576 | -4.17533 | 17077 ft | 294 kts | 267° |
| 2026-05-05 10:57 | 37.86507 | -4.20111 | 16678 ft | 293 kts | 267° |
| 2026-05-05 10:57 | 37.86437 | -4.22680 | 16280 ft | 291 kts | 267° |
| 2026-05-05 10:57 | 37.86365 | -4.25239 | 15887 ft | 290 kts | 267° |
| 2026-05-05 10:57 | 37.86292 | -4.27784 | 15497 ft | 289 kts | 267° |
| 2026-05-05 10:58 | 37.86217 | -4.30324 | 15105 ft | 288 kts | 267° |
| 2026-05-05 10:58 | 37.86143 | -4.32858 | 14714 ft | 288 kts | 267° |
| 2026-05-05 10:58 | 37.86069 | -4.35388 | 14328 ft | 288 kts | 267° |
| 2026-05-05 10:58 | 37.85997 | -4.37919 | 13925 ft | 288 kts | 267° |
| 2026-05-05 10:59 | 37.85925 | -4.40415 | 13495 ft | 288 kts | 267° |
| 2026-05-05 10:59 | 37.85852 | -4.42940 | 13095 ft | 287 kts | 267° |
| 2026-05-05 10:59 | 37.85962 | -4.45449 | 12686 ft | 287 kts | 281° |
| 2026-05-05 10:59 | 37.86738 | -4.47770 | 12259 ft | 291 kts | 301° |
| 2026-05-05 11:00 | 37.88164 | -4.49616 | 11787 ft | 300 kts | 321° |
| 2026-05-05 11:00 | 37.90099 | -4.50692 | 11226 ft | 313 kts | 343° |
| 2026-05-05 11:00 | 37.92308 | -4.50761 | 10647 ft | 321 kts | 3° |
| 2026-05-05 11:00 | 37.94484 | -4.50386 | 10234 ft | 307 kts | 4° |
| 2026-05-05 11:01 | 37.96553 | -4.50011 | 9850 ft | 294 kts | 4° |
| 2026-05-05 11:01 | 37.98572 | -4.49709 | 9717 ft | 290 kts | 356° |
| 2026-05-05 11:01 | 38.00533 | -4.50068 | 9575 ft | 283 kts | 338° |
| 2026-05-05 11:01 | 38.02283 | -4.51139 | 8868 ft | 277 kts | 320° |
| 2026-05-05 11:02 | 38.03633 | -4.52823 | 8206 ft | 269 kts | 304° |
| 2026-05-05 11:02 | 38.04694 | -4.54757 | 7572 ft | 266 kts | 303° |
| 2026-05-05 11:02 | 38.05751 | -4.56674 | 6934 ft | 265 kts | 303° |
| 2026-05-05 11:02 | 38.06822 | -4.58606 | 6369 ft | 269 kts | 304° |
| 2026-05-05 11:03 | 38.07734 | -4.60620 | 5757 ft | 261 kts | 287° |
| 2026-05-05 11:03 | 38.07863 | -4.62883 | 5056 ft | 259 kts | 259° |
| 2026-05-05 11:03 | 38.07132 | -4.64947 | 4353 ft | 258 kts | 232° |
| 2026-05-05 11:03 | 38.05789 | -4.66439 | 3795 ft | 253 kts | 219° |
| 2026-05-05 11:04 | 38.04450 | -4.67716 | 3731 ft | 229 kts | 219° |
| 2026-05-05 11:04 | 38.03233 | -4.68877 | 3671 ft | 211 kts | 219° |
| 2026-05-05 11:04 | 38.02070 | -4.69994 | 3624 ft | 210 kts | 219° |
| 2026-05-05 11:04 | 38.00903 | -4.71103 | 3546 ft | 209 kts | 218° |
| 2026-05-05 11:05 | 37.99709 | -4.72141 | 3457 ft | 206 kts | 216° |
| 2026-05-05 11:05 | 37.98553 | -4.73108 | 3396 ft | 191 kts | 216° |
| 2026-05-05 11:05 | 37.97488 | -4.73991 | 3300 ft | 174 kts | 216° |
| 2026-05-05 11:05 | 37.96553 | -4.74768 | 3251 ft | 149 kts | 217° |
| 2026-05-05 11:06 | 37.95723 | -4.75463 | 3168 ft | 141 kts | 217° |
| 2026-05-05 11:06 | 37.94917 | -4.76143 | 2951 ft | 139 kts | 216° |
| 2026-05-05 11:06 | 37.94122 | -4.76816 | 2727 ft | 135 kts | 218° |
| 2026-05-05 11:06 | 37.93349 | -4.77470 | 2518 ft | 132 kts | 218° |
| 2026-05-05 11:07 | 37.92574 | -4.78124 | 2324 ft | 135 kts | 218° |
| 2026-05-05 11:07 | 37.91796 | -4.78782 | 2134 ft | 134 kts | 217° |
| 2026-05-05 11:07 | 37.91022 | -4.79434 | 1928 ft | 133 kts | 215° |
| 2026-05-05 11:07 | 37.90250 | -4.80081 | 1732 ft | 133 kts | 214° |
| 2026-05-05 11:08 | 37.89482 | -4.80727 | 1535 ft | 132 kts | 215° |
| 2026-05-05 11:08 | 37.88724 | -4.81368 | 1339 ft | 130 kts | 214° |
| 2026-05-05 11:08 | 37.87981 | -4.81996 | 1138 ft | 128 kts | 216° |
| 2026-05-05 11:08 | 37.87246 | -4.82616 | 952 ft | 126 kts | 215° |
| 2026-05-05 11:09 | 37.86499 | -4.83242 | 762 ft | 129 kts | 214° |
| 2026-05-05 11:09 | 37.85723 | -4.83830 | 509 ft | 132 kts | 211° |
| 2026-05-05 11:09 | 37.84933 | -4.84368 | 332 ft | 126 kts | 210° |
| 2026-05-05 11:09 | 37.84228 | -4.84864 | 305 ft | 91 kts | 210° |
| 2026-05-05 11:10 | 37.83940 | -4.85064 | 302 ft | 5 kts | 210° |
| 2026-05-05 11:10 | 37.83930 | -4.85089 | 303 ft | 11 kts | 226° |
| 2026-05-05 11:10 | 37.83916 | -4.85077 | 304 ft | 4 kts | 78° |
| 2026-05-05 11:10 | 37.84003 | -4.85013 | 303 ft | 19 kts | 24° |
| 2026-05-05 11:11 | 37.84116 | -4.84938 | 303 ft | 18 kts | 26° |
| 2026-05-05 11:11 | 37.84214 | -4.84872 | 307 ft | 15 kts | 30° |
| 2026-05-05 11:11 | 37.84299 | -4.84816 | 307 ft | 13 kts | 28° |
| 2026-05-05 11:11 | 37.84348 | -4.84717 | 297 ft | 14 kts | 103° |
| 2026-05-05 11:12 | 37.84337 | -4.84681 | 308 ft | 0 kts | 115° |
| 2026-05-05 11:13 | 37.84323 | -4.84643 | 310 ft | 10 kts | 116° |
| 2026-05-05 11:13 | 37.84319 | -4.84570 | 309 ft | 9 kts | 62° |
| 2026-05-05 11:14 | 37.84365 | -4.84544 | 310 ft | 0 kts | 313° |